Time;durP1;ratioP1;P1;durP2;ratioP2;P2;SDS_P1;SDS_P2;PMS_P1;PMS_P2;Temp;Humidity;BMP_temperature;BMP_pressure;BME280_temperature;BME280_humidity;BME280_pressure;Samples;Min_cycle;Max_cycle;Signal;HPM_P1;HPM_P2
2022/03/18 00:00:35;;;;;;;2.63;1.20;;;;;;;20.12;56.24;100327.94;4906882;29;20855;-87
2022/03/18 00:03:01;;;;;;;5.22;1.30;;;;;;;20.12;56.37;100329.72;4923068;29;20032;-87
2022/03/18 00:05:26;;;;;;;2.15;1.30;;;;;;;20.12;56.23;100325.31;4906385;29;20473;-88
2022/03/18 00:07:53;;;;;;;2.13;1.40;;;;;;;20.12;56.31;100324.44;4906482;29;20051;-88
2022/03/18 00:10:19;;;;;;;2.35;1.27;;;;;;;20.11;56.33;100334.16;4907734;29;20067;-88
2022/03/18 00:12:46;;;;;;;2.53;1.23;;;;;;;20.12;56.48;100325.31;4921907;29;20032;-88
2022/03/18 00:15:14;;;;;;;2.13;1.38;;;;;;;20.11;56.18;100323.56;4922590;29;20028;-88
2022/03/18 00:17:40;;;;;;;2.08;1.27;;;;;;;20.12;56.28;100330.59;4906201;29;20028;-88
2022/03/18 00:20:08;;;;;;;2.42;1.25;;;;;;;20.11;56.37;100323.56;4922264;29;20024;-87
2022/03/18 00:22:34;;;;;;;2.08;1.20;;;;;;;20.10;56.24;100327.13;4906397;29;20454;-87
2022/03/18 00:25:00;;;;;;;2.92;1.13;;;;;;;20.10;56.24;100332.44;4906175;29;20020;-88
2022/03/18 00:27:26;;;;;;;2.22;1.20;;;;;;;20.11;56.34;100331.50;4922119;29;20032;-89
2022/03/18 00:29:54;;;;;;;2.28;1.30;;;;;;;20.10;56.21;100327.13;4906532;29;20024;-88
2022/03/18 00:32:20;;;;;;;3.08;1.23;;;;;;;20.10;56.31;100327.13;4923187;29;20024;-88
2022/03/18 00:34:46;;;;;;;2.25;1.20;;;;;;;20.10;56.16;100332.44;4923144;29;20028;-88
2022/03/18 00:37:12;;;;;;;2.65;1.30;;;;;;;20.11;56.39;100341.25;4906564;29;20477;-87
2022/03/18 00:39:37;;;;;;;2.38;1.10;;;;;;;20.11;56.22;100339.44;4906101;29;20028;-87
2022/03/18 00:42:03;;;;;;;2.88;1.42;;;;;;;20.12;56.40;100330.59;4908770;29;20030;-89
2022/03/18 00:44:29;;;;;;;2.47;1.17;;;;;;;20.11;56.25;100336.81;4924698;29;20028;-88
2022/03/18 00:46:54;;;;;;;2.47;1.10;;;;;;;20.11;56.38;100335.97;4924658;29;20085;-88
2022/03/18 00:52:05;;;;;;;2.92;1.38;;;;;;;20.11;56.32;100328.00;4921350;29;20123;-88
2022/03/18 00:54:34;;;;;;;2.45;1.17;;;;;;;20.11;56.16;100323.56;4920241;29;20039;-88
2022/03/18 00:57:01;;;;;;;2.55;1.13;;;;;;;20.10;56.44;100321.84;4905194;29;20024;-88
2022/03/18 00:59:26;;;;;;;2.47;1.15;;;;;;;20.11;56.31;100323.56;4905265;29;20410;-88
2022/03/18 01:01:52;;;;;;;2.25;1.20;;;;;;;20.11;56.34;100323.56;4906395;29;20062;-88
2022/03/18 01:04:23;;;;;;;1.80;1.10;;;;;;;20.11;56.17;100323.56;4908017;29;20035;-89
2022/03/18 01:06:50;;;;;;;2.50;1.10;;;;;;;20.10;56.30;100324.50;4907629;29;20465;-89
2022/03/18 01:09:16;;;;;;;2.50;1.30;;;;;;;20.10;56.15;100321.84;4923477;29;20023;-89
2022/03/18 01:11:42;;;;;;;2.85;1.20;;;;;;;20.10;56.14;100311.25;4907325;29;20044;-90
2022/03/18 01:14:08;;;;;;;2.20;1.02;;;;;;;20.10;56.34;100311.25;4926089;29;20115;-89
2022/03/18 01:16:34;;;;;;;2.25;0.80;;;;;;;20.11;56.08;100318.25;4908147;29;20068;-89
2022/03/18 01:19:00;;;;;;;2.55;1.00;;;;;;;20.10;56.39;100321.84;4908234;29;20036;-90
2022/03/18 01:21:25;;;;;;;1.88;1.15;;;;;;;20.11;56.22;100322.72;4923580;29;20095;-90
2022/03/18 01:23:51;;;;;;;3.05;1.20;;;;;;;20.09;56.19;100314.81;4907859;29;20039;-89
2022/03/18 01:26:17;;;;;;;2.55;1.10;;;;;;;20.11;56.38;100312.13;4907752;29;20095;-89
2022/03/18 01:28:43;;;;;;;1.75;1.10;;;;;;;20.11;56.05;100320.06;4908202;29;20028;-90
2022/03/18 01:31:08;;;;;;;2.10;1.13;;;;;;;20.10;56.31;100315.69;4926000;29;20029;-90
2022/03/18 01:33:36;;;;;;;2.15;1.02;;;;;;;20.09;56.43;100320.13;4908880;29;20027;-89
2022/03/18 01:36:02;;;;;;;1.85;1.20;;;;;;;20.09;56.37;100324.53;4921306;29;20028;-88
2022/03/18 01:38:27;;;;;;;2.58;0.98;;;;;;;20.10;56.25;100321.84;4906047;29;20051;-89
2022/03/18 01:40:54;;;;;;;2.63;0.85;;;;;;;20.09;56.43;100319.25;4905067;29;20024;-89
2022/03/18 01:43:19;;;;;;;2.15;1.20;;;;;;;20.08;56.46;100318.41;4905555;29;20036;-89
2022/03/18 01:45:45;;;;;;;2.05;1.15;;;;;;;20.08;56.40;100313.09;4923435;29;20382;-88
2022/03/18 01:48:10;;;;;;;2.53;1.17;;;;;;;20.08;56.32;100321.06;4921793;29;20039;-88
2022/03/18 01:50:40;;;;;;;1.92;1.00;;;;;;;20.09;56.52;100319.25;4905441;29;20461;-88
2022/03/18 01:53:07;;;;;;;1.83;1.00;;;;;;;20.09;56.32;100317.47;4905866;29;20055;-87
2022/03/18 01:55:33;;;;;;;2.10;0.82;;;;;;;20.09;56.43;100314.81;4906337;29;20028;-87
2022/03/18 01:57:59;;;;;;;2.03;1.10;;;;;;;20.09;56.42;100322.78;4921241;29;20366;-88
2022/03/18 02:00:25;;;;;;;3.15;1.25;;;;;;;20.08;56.19;100313.09;4904745;29;20038;-88
2022/03/18 02:02:51;;;;;;;2.50;0.85;;;;;;;20.08;56.23;100310.47;4920256;29;20378;-88
2022/03/18 02:05:18;;;;;;;3.47;1.30;;;;;;;20.08;56.38;100307.81;4905194;29;20059;-89
2022/03/18 02:07:45;;;;;;;1.70;0.90;;;;;;;20.09;56.10;100295.41;4905438;29;20032;-89
2022/03/18 02:10:11;;;;;;;1.90;1.02;;;;;;;20.08;56.42;100307.81;4920183;29;20133;-88
2022/03/18 02:12:37;;;;;;;1.90;1.10;;;;;;;20.08;56.38;100307.81;4920120;29;20035;-88
2022/03/18 02:15:03;;;;;;;1.40;0.90;;;;;;;20.09;56.43;100308.66;4903677;29;20028;-89
2022/03/18 02:17:29;;;;;;;2.45;1.20;;;;;;;20.08;56.39;100302.50;4920254;29;20039;-88
2022/03/18 02:19:55;;;;;;;2.10;0.95;;;;;;;20.08;56.33;100305.16;4903508;29;20024;-87
2022/03/18 02:22:26;;;;;;;2.10;1.10;;;;;;;20.07;56.33;100306.09;4920692;29;20039;-86
2022/03/18 02:24:53;;;;;;;1.90;1.13;;;;;;;20.07;56.33;100300.78;4904304;29;20036;-86
2022/03/18 02:27:20;;;;;;;2.75;1.02;;;;;;;20.08;56.51;100301.63;4904517;29;20104;-88
2022/03/18 02:29:46;;;;;;;1.95;1.00;;;;;;;20.08;56.34;100307.81;4921302;29;20020;-88
2022/03/18 02:32:18;;;;;;;1.55;0.90;;;;;;;20.08;56.39;100307.81;4920485;29;20024;-87
2022/03/18 02:34:44;;;;;;;2.70;1.10;;;;;;;20.08;56.25;100310.47;4922487;29;20079;-88
2022/03/18 02:37:09;;;;;;;1.73;0.90;;;;;;;20.07;56.19;100306.09;4905101;29;20023;-88
2022/03/18 02:39:35;;;;;;;1.58;0.80;;;;;;;20.08;56.37;100299.84;4906523;29;20404;-89
2022/03/18 02:42:01;;;;;;;1.90;1.00;;;;;;;20.08;56.64;100301.63;4905115;29;20039;-89
2022/03/18 02:44:27;;;;;;;1.90;1.02;;;;;;;20.08;56.16;100306.94;4904459;29;20119;-88
2022/03/18 02:46:53;;;;;;;3.03;1.15;;;;;;;20.08;56.40;100304.28;4906455;29;20050;-89
2022/03/18 02:49:21;;;;;;;2.20;1.17;;;;;;;20.08;56.23;100305.16;4922101;29;20028;-88
2022/03/18 02:51:47;;;;;;;1.73;0.95;;;;;;;20.08;56.37;100302.50;4921424;29;20466;-88
2022/03/18 02:54:13;;;;;;;1.73;0.98;;;;;;;20.08;56.24;100302.50;4922909;29;20024;-88
2022/03/18 02:56:38;;;;;;;2.13;1.10;;;;;;;20.06;56.27;100301.72;4924659;29;20066;-88
2022/03/18 02:59:04;;;;;;;2.45;1.05;;;;;;;20.07;56.34;100306.09;4907922;29;20032;-89
2022/03/18 03:01:31;;;;;;;2.35;1.17;;;;;;;20.08;56.11;100297.22;4908721;29;20036;-87
2022/03/18 03:03:58;;;;;;;1.65;0.90;;;;;;;20.06;56.21;100296.44;4926011;29;20558;-88
2022/03/18 03:09:08;;;;;;;1.85;0.85;;;;;;;20.07;56.18;100305.22;4925791;29;20099;-90
2022/03/18 03:11:34;;;;;;;1.88;1.10;;;;;;;20.07;56.17;100298.16;4908132;29;20055;-88
2022/03/18 03:14:00;;;;;;;2.63;0.90;;;;;;;20.06;56.15;100298.19;4908948;29;20062;-88
2022/03/18 03:16:27;;;;;;;1.92;0.95;;;;;;;20.07;55.92;100305.22;4908051;29;20028;-87
2022/03/18 03:18:52;;;;;;;2.03;0.98;;;;;;;20.06;56.10;100304.38;4910347;29;20032;-87
2022/03/18 03:21:18;;;;;;;2.25;1.00;;;;;;;20.07;56.16;100306.09;4909449;29;20035;-88
2022/03/18 03:23:45;;;;;;;1.75;0.93;;;;;;;20.06;56.06;100304.38;4925604;29;20451;-88
2022/03/18 03:26:12;;;;;;;1.75;0.98;;;;;;;20.06;56.17;100303.50;4910385;29;20395;-88
2022/03/18 03:28:38;;;;;;;1.90;0.90;;;;;;;20.05;56.07;100297.34;4909902;29;20103;-88
2022/03/18 03:31:04;;;;;;;1.98;0.90;;;;;;;20.05;56.24;100301.78;4909806;29;20196;-88
2022/03/18 03:33:31;;;;;;;1.50;0.60;;;;;;;20.05;56.24;100301.78;4909910;29;20407;-88
2022/03/18 03:35:57;;;;;;;1.42;0.90;;;;;;;20.04;56.06;100300.91;4909376;29;20034;-89
2022/03/18 03:38:23;;;;;;;2.10;1.00;;;;;;;20.05;56.19;100297.34;4909848;29;20028;-89
2022/03/18 03:40:49;;;;;;;1.98;0.95;;;;;;;20.04;56.34;100297.41;4909112;29;20062;-90
2022/03/18 03:43:15;;;;;;;2.15;0.98;;;;;;;20.06;56.06;100303.50;4907101;29;20031;-90
2022/03/18 03:45:41;;;;;;;2.72;0.95;;;;;;;20.04;56.14;100300.91;4907997;29;20028;-89
2022/03/18 03:48:07;;;;;;;1.45;0.77;;;;;;;20.05;56.36;100305.28;4908863;29;20040;-88
2022/03/18 03:50:34;;;;;;;2.75;0.90;;;;;;;20.06;56.14;100308.81;4911698;29;20024;-88
2022/03/18 03:53:00;;;;;;;1.88;0.90;;;;;;;20.06;55.98;100317.63;4927990;29;20092;-88
2022/03/18 03:55:26;;;;;;;2.15;1.00;;;;;;;20.04;56.11;100322.09;4912762;29;20024;-88
2022/03/18 03:57:51;;;;;;;1.20;0.80;;;;;;;20.05;55.87;100320.34;4928610;29;20031;-88
2022/03/18 04:00:17;;;;;;;1.30;0.80;;;;;;;20.03;56.42;100324.81;4913471;29;20091;-88
2022/03/18 04:02:43;;;;;;;0.82;0.60;;;;;;;20.03;56.02;100320.38;4927887;29;20107;-88
2022/03/18 04:05:10;;;;;;;1.63;0.85;;;;;;;20.04;56.21;100322.09;4907687;29;20024;-88
2022/03/18 04:07:41;;;;;;;1.63;0.80;;;;;;;20.03;56.22;100330.97;4908305;29;20180;-89
2022/03/18 04:10:09;;;;;;;2.08;0.80;;;;;;;20.01;56.34;100324.91;4911082;29;20050;-90
2022/03/18 04:12:35;;;;;;;1.30;0.88;;;;;;;20.04;56.14;100326.56;4911587;29;20028;-88
2022/03/18 04:15:05;;;;;;;2.03;0.80;;;;;;;20.01;56.05;100327.56;4909858;29;20028;-89
2022/03/18 04:17:47;;;;;;;1.75;0.80;;;;;;;20.04;56.10;100337.16;4908998;29;20443;-89
2022/03/18 04:20:22;;;;;;;2.35;0.80;;;;;;;20.01;56.31;100324.91;4909557;29;20104;-89
2022/03/18 04:22:48;;;;;;;1.50;0.70;;;;;;;20.03;56.33;100323.03;4910973;29;20119;-88
2022/03/18 04:25:14;;;;;;;1.58;0.80;;;;;;;20.02;56.08;100339.88;4909413;29;20036;-89
2022/03/18 04:27:40;;;;;;;1.67;0.90;;;;;;;20.03;56.17;100325.69;4908988;29;20083;-88
2022/03/18 04:30:09;;;;;;;1.85;0.80;;;;;;;20.03;56.21;100325.69;4925574;29;20051;-89
2022/03/18 04:32:35;;;;;;;1.80;0.85;;;;;;;20.03;56.23;100327.47;4925764;29;20035;-88
2022/03/18 04:35:00;;;;;;;1.55;1.05;;;;;;;20.02;56.03;100333.69;4910175;29;20039;-89
2022/03/18 04:37:26;;;;;;;2.28;0.70;;;;;;;20.01;56.04;100330.19;4928407;29;20051;-89
2022/03/18 04:39:52;;;;;;;0.98;0.80;;;;;;;20.01;55.92;100342.56;4915667;29;20032;-89
2022/03/18 04:42:18;;;;;;;2.33;0.82;;;;;;;19.99;56.11;100346.16;4911708;29;20047;-89
2022/03/18 04:44:44;;;;;;;1.63;0.90;;;;;;;20.00;56.04;100339.06;4912360;29;20513;-88
2022/03/18 04:47:10;;;;;;;1.80;0.80;;;;;;;19.99;56.00;100339.97;4911474;29;20032;-89
2022/03/18 04:49:36;;;;;;;1.70;0.90;;;;;;;19.99;56.05;100342.63;4911766;29;20044;-90
2022/03/18 04:52:02;;;;;;;1.60;0.88;;;;;;;19.98;56.07;100341.78;4913837;29;20032;-90
2022/03/18 04:54:28;;;;;;;1.63;0.68;;;;;;;19.99;56.17;100345.28;4914636;29;20514;-89
2022/03/18 04:59:40;;;;;;;1.27;0.88;;;;;;;20.00;56.07;100352.28;4928185;29;20099;-90
2022/03/18 05:02:06;;;;;;;1.45;0.68;;;;;;;19.99;55.90;100350.56;4910729;29;20103;-90
2022/03/18 05:04:31;;;;;;;1.20;0.77;;;;;;;19.98;56.27;100354.16;4908855;29;20028;-88
2022/03/18 05:06:57;;;;;;;2.20;1.00;;;;;;;19.98;56.14;100346.22;4911626;29;20024;-89
2022/03/18 05:09:23;;;;;;;1.38;0.90;;;;;;;19.98;56.13;100360.34;4905343;29;20035;-90
2022/03/18 05:11:49;;;;;;;1.08;0.80;;;;;;;19.99;56.15;100355.88;4907879;29;20485;-88
2022/03/18 05:14:15;;;;;;;1.58;0.98;;;;;;;19.98;56.12;100354.16;4906673;29;20032;-88
2022/03/18 05:16:42;;;;;;;1.40;0.80;;;;;;;19.99;56.05;100350.56;4921583;29;20054;-88
2022/03/18 05:19:09;;;;;;;3.15;0.95;;;;;;;19.97;56.21;100353.31;4921913;29;20435;-88
2022/03/18 05:21:35;;;;;;;1.35;0.80;;;;;;;19.98;56.19;100346.22;4912206;29;20028;-90
2022/03/18 05:24:01;;;;;;;2.28;0.85;;;;;;;19.98;55.99;100343.56;4922560;29;20115;-90
2022/03/18 05:26:26;;;;;;;1.67;0.80;;;;;;;19.97;56.23;100352.44;4925836;29;20030;-90
2022/03/18 05:28:52;;;;;;;1.00;0.65;;;;;;;19.96;56.05;100351.56;4920981;29;20192;-89
2022/03/18 05:31:17;;;;;;;1.95;0.88;;;;;;;19.97;55.96;100344.50;4932744;29;20040;-89
2022/03/18 05:33:43;;;;;;;2.25;0.70;;;;;;;19.96;56.18;100351.56;4919406;29;20016;-88
2022/03/18 05:36:09;;;;;;;1.42;0.70;;;;;;;19.97;55.98;100344.50;4924839;29;20032;-88
2022/03/18 05:38:34;;;;;;;2.03;1.05;;;;;;;19.96;55.99;100348.06;4923932;29;20184;-90
2022/03/18 05:41:00;;;;;;;1.58;0.80;;;;;;;19.96;56.03;100351.56;4920849;29;20064;-90
2022/03/18 05:43:25;;;;;;;1.27;0.70;;;;;;;19.96;56.09;100348.06;4920205;29;20038;-88
2022/03/18 05:45:51;;;;;;;2.22;0.90;;;;;;;19.97;55.96;100347.16;4923773;29;20069;-87
2022/03/18 05:48:17;;;;;;;2.10;0.90;;;;;;;19.96;56.11;100350.72;4938613;29;20012;-91
2022/03/18 05:50:42;;;;;;;1.80;0.85;;;;;;;19.95;56.19;100349.81;4925970;29;20117;-88
2022/03/18 05:53:08;;;;;;;0.90;0.47;;;;;;;19.98;55.98;100354.16;4922793;29;20012;-88
2022/03/18 05:58:21;;;;;;;1.58;0.88;;;;;;;19.97;55.99;100357.75;4940347;29;20064;-89
2022/03/18 06:00:47;;;;;;;1.70;0.90;;;;;;;19.96;55.94;100351.56;4926288;29;20054;-90
2022/03/18 06:03:19;;;;;;;2.05;0.80;;;;;;;19.96;56.09;100353.38;4936448;28;20031;-90
2022/03/18 06:05:48;;;;;;;2.10;0.93;;;;;;;19.95;55.87;100354.28;4942006;29;20087;-89
2022/03/18 06:13:49;;;;;;;1.38;0.70;;;;;;;19.94;55.93;100352.53;4951596;28;20020;-89
2022/03/18 06:16:14;;;;;;;2.13;0.88;;;;;;;19.94;56.20;100357.81;4961196;28;20042;-89
2022/03/18 06:18:41;;;;;;;3.47;1.40;;;;;;;19.97;57.20;100358.63;4943603;29;20099;-89
2022/03/18 06:21:10;;;;;;;2.28;0.85;;;;;;;20.05;58.24;100365.38;4935954;29;20099;-88
2022/03/18 06:23:35;;;;;;;2.10;1.10;;;;;;;20.09;58.02;100359.88;4932084;29;20087;-88
2022/03/18 06:26:01;;;;;;;4.90;0.90;;;;;;;20.19;57.75;100372.72;4933197;29;20043;-89
2022/03/18 06:28:28;;;;;;;3.47;1.00;;;;;;;20.25;57.80;100375.09;4933890;29;20047;-88
2022/03/18 06:30:53;;;;;;;2.85;1.00;;;;;;;20.26;58.35;100380.31;4931100;29;20099;-88
2022/03/18 06:33:19;;;;;;;2.78;1.17;;;;;;;20.26;58.44;100384.78;4945825;29;20068;-87
2022/03/18 06:35:45;;;;;;;2.95;0.90;;;;;;;20.26;58.24;100385.63;4928645;29;20446;-89
2022/03/18 06:38:10;;;;;;;4.80;1.02;;;;;;;20.27;58.03;100391.78;4931236;29;20035;-87
2022/03/18 06:40:36;;;;;;;1.42;0.90;;;;;;;20.27;58.06;100397.09;4948209;29;20042;-89
2022/03/18 06:43:01;;;;;;;3.25;1.20;;;;;;;20.25;57.89;100393.66;4923427;29;20099;-89
2022/03/18 06:45:27;;;;;;;3.78;1.00;;;;;;;20.24;57.85;100391.94;4942705;29;20183;-90
2022/03/18 06:51:16;;;;;;;2.53;1.10;;;;;;;20.23;57.83;100406.09;4929350;29;20461;-90
2022/03/18 06:53:41;;;;;;;3.08;1.05;;;;;;;20.20;57.36;100408.91;4912543;29;20048;-90
2022/03/18 06:56:07;;;;;;;1.73;0.80;;;;;;;20.18;57.26;100400.13;4940894;29;20438;-90
2022/03/18 06:58:34;;;;;;;2.03;1.05;;;;;;;20.16;57.25;100404.66;4907874;29;20117;-89
2022/03/18 07:00:59;;;;;;;2.30;0.90;;;;;;;20.15;57.07;100401.16;4908222;29;20028;-89
2022/03/18 07:03:25;;;;;;;4.15;1.23;;;;;;;20.13;57.03;100410.94;4911518;29;20047;-89
2022/03/18 07:05:51;;;;;;;4.05;1.10;;;;;;;20.12;57.04;100409.22;4910281;29;20027;-89
2022/03/18 07:08:16;;;;;;;2.05;0.95;;;;;;;20.11;57.08;100413.63;4910214;29;20377;-90
2022/03/18 07:10:42;;;;;;;3.00;1.10;;;;;;;20.09;57.07;100404.91;4942170;29;20048;-90
2022/03/18 07:13:08;;;;;;;3.13;1.02;;;;;;;20.09;56.85;100415.50;4910384;29;20032;-90
2022/03/18 07:15:33;;;;;;;2.50;0.88;;;;;;;20.09;56.58;100414.63;4911073;29;20191;-89
2022/03/18 07:17:59;;;;;;;2.15;0.95;;;;;;;20.08;56.75;100419.09;4910807;29;20032;-89
2022/03/18 07:20:35;;;;;;;2.58;1.00;;;;;;;20.07;56.77;100417.38;4911019;29;20040;-89
2022/03/18 07:23:07;;;;;;;1.00;0.80;;;;;;;20.06;56.73;100426.25;4911300;29;20496;-89
2022/03/18 07:25:41;;;;;;;3.08;0.82;;;;;;;20.05;56.59;100424.50;4908580;29;20039;-91
2022/03/18 07:28:08;;;;;;;2.28;0.82;;;;;;;20.04;56.57;100425.44;4924825;29;20024;-88
2022/03/18 07:30:35;;;;;;;1.17;0.80;;;;;;;20.04;56.57;100430.72;4907309;29;20091;-89
2022/03/18 07:33:01;;;;;;;1.75;1.05;;;;;;;20.04;56.82;100433.38;4907244;29;20031;-89
2022/03/18 07:35:27;;;;;;;2.88;0.88;;;;;;;20.02;56.63;100432.59;4910385;29;20448;-91
2022/03/18 07:37:52;;;;;;;1.73;0.80;;;;;;;20.02;56.38;100440.53;4909517;29;20187;-90
2022/03/18 07:40:21;;;;;;;3.30;0.90;;;;;;;20.01;56.21;100432.66;4912647;29;20454;-89
2022/03/18 07:42:52;;;;;;;3.00;0.90;;;;;;;19.99;56.31;100440.66;4912899;29;20032;-90
2022/03/18 07:45:22;;;;;;;3.03;0.90;;;;;;;19.98;56.33;100446.88;4913238;29;20123;-89
2022/03/18 07:47:51;;;;;;;2.35;0.90;;;;;;;19.98;56.32;100446.88;4944760;29;20032;-88
2022/03/18 07:50:23;;;;;;;2.88;0.95;;;;;;;19.96;56.49;100443.44;4913381;29;20028;-88
2022/03/18 07:52:55;;;;;;;1.73;0.90;;;;;;;19.96;56.21;100459.34;4911655;29;20028;-89
2022/03/18 07:55:24;;;;;;;1.30;0.75;;;;;;;19.93;56.40;100456.75;4926970;29;20028;-87
2022/03/18 07:57:50;;;;;;;1.63;0.80;;;;;;;19.94;56.35;100463.78;4925311;29;20039;-89
2022/03/18 08:00:17;;;;;;;1.90;0.88;;;;;;;19.93;56.22;100468.25;4905720;29;20064;-88
2022/03/18 08:02:44;;;;;;;2.05;1.00;;;;;;;19.92;56.27;100460.34;4937567;29;20079;-88
2022/03/18 08:05:10;;;;;;;2.67;0.80;;;;;;;19.90;56.13;100457.75;4926596;29;20377;-88
2022/03/18 08:07:37;;;;;;;1.83;0.90;;;;;;;19.90;56.19;100468.34;4910064;29;20031;-89
2022/03/18 08:10:08;;;;;;;1.80;0.82;;;;;;;19.90;56.10;100459.56;4911560;29;20062;-88
2022/03/18 08:12:34;;;;;;;2.00;1.02;;;;;;;19.89;56.20;100457.84;4912235;29;20422;-89
2022/03/18 08:15:03;;;;;;;2.38;0.88;;;;;;;19.87;55.99;100463.19;4912980;29;20035;-89
2022/03/18 08:17:29;;;;;;;1.95;0.75;;;;;;;19.88;56.01;100464.03;4911950;29;20131;-90
2022/03/18 08:19:55;;;;;;;2.95;0.80;;;;;;;19.86;56.22;100458.81;4943478;29;20055;-89
2022/03/18 08:22:22;;;;;;;1.48;0.60;;;;;;;19.86;55.99;100459.66;4910790;29;20060;-88
2022/03/18 08:24:50;;;;;;;1.55;0.77;;;;;;;19.84;56.21;100453.59;4910620;29;20036;-88
2022/03/18 08:27:17;;;;;;;1.50;0.63;;;;;;;19.85;56.19;100452.66;4909500;29;20024;-89
2022/03/18 08:29:43;;;;;;;2.00;0.77;;;;;;;19.84;55.93;100458.00;4909519;29;20347;-88
2022/03/18 08:32:12;;;;;;;2.15;0.80;;;;;;;19.83;55.79;100462.44;4925876;29;20050;-88
2022/03/18 08:34:39;;;;;;;1.90;0.95;;;;;;;19.83;55.93;100461.56;4925485;29;20365;-88
2022/03/18 08:37:05;;;;;;;2.08;0.70;;;;;;;19.81;56.08;100468.72;4943374;29;20380;-89
2022/03/18 08:39:38;;;;;;;2.13;1.00;;;;;;;19.81;56.13;100466.94;4911282;29;20127;-89
2022/03/18 08:42:04;;;;;;;1.73;0.80;;;;;;;19.82;55.94;100475.75;4910904;29;20043;-90
2022/03/18 08:44:30;;;;;;;1.52;0.70;;;;;;;19.78;56.26;100475.00;4908976;29;20036;-89
2022/03/18 08:46:57;;;;;;;1.70;0.88;;;;;;;19.80;56.15;100470.50;4910287;29;20069;-89
2022/03/18 08:49:22;;;;;;;3.30;1.08;;;;;;;19.79;55.98;100474.09;4910641;29;20032;-90
2022/03/18 08:51:48;;;;;;;1.35;0.75;;;;;;;19.78;56.33;100482.09;4909525;29;20054;-90
2022/03/18 08:54:13;;;;;;;1.85;0.70;;;;;;;19.76;55.84;100484.78;4910029;29;20044;-90
2022/03/18 08:56:39;;;;;;;1.55;1.17;;;;;;;19.74;56.04;100484.00;4908555;29;20028;-90
2022/03/18 08:59:06;;;;;;;1.10;0.73;;;;;;;19.73;56.10;100484.94;4924688;29;20035;-90
2022/03/18 09:01:37;;;;;;;0.95;0.63;;;;;;;19.73;55.83;100488.41;4907972;29;20032;-90
2022/03/18 09:04:04;;;;;;;0.82;0.63;;;;;;;19.75;55.98;100493.66;4909860;29;20032;-89
2022/03/18 09:06:29;;;;;;;2.30;0.80;;;;;;;19.73;56.03;100484.94;4908735;29;20032;-89
2022/03/18 09:09:02;;;;;;;1.73;0.90;;;;;;;19.73;56.03;100493.72;4927858;29;20087;-88
2022/03/18 09:11:28;;;;;;;1.45;0.73;;;;;;;19.74;56.22;100489.28;4910581;29;20084;-89
2022/03/18 09:13:54;;;;;;;1.75;0.85;;;;;;;19.74;55.74;100489.28;4942525;29;20032;-89
2022/03/18 09:16:19;;;;;;;1.08;0.65;;;;;;;19.75;55.99;100492.81;4910549;29;20381;-88
2022/03/18 09:18:45;;;;;;;2.20;0.90;;;;;;;19.72;55.87;100489.34;4910418;29;20036;-89
2022/03/18 09:21:11;;;;;;;1.55;0.90;;;;;;;19.73;55.77;100487.56;4909147;29;20028;-88
2022/03/18 09:23:37;;;;;;;1.65;0.95;;;;;;;19.72;55.71;100491.16;4939082;29;20024;-89
2022/03/18 09:26:03;;;;;;;1.67;0.80;;;;;;;19.73;55.93;100492.88;4935914;29;20032;-88
2022/03/18 09:28:28;;;;;;;2.00;0.82;;;;;;;19.72;55.89;100492.00;4905069;29;20430;-90
2022/03/18 09:30:54;;;;;;;2.40;0.98;;;;;;;19.71;55.74;100484.13;4921764;29;20035;-88
2022/03/18 09:33:20;;;;;;;2.17;0.70;;;;;;;19.72;55.88;100488.50;4906445;29;20497;-88
2022/03/18 09:35:45;;;;;;;1.50;0.70;;;;;;;19.72;55.92;100488.50;4906799;29;20035;-89
2022/03/18 09:38:11;;;;;;;1.80;0.70;;;;;;;19.71;55.83;100497.38;4907652;29;20480;-88
2022/03/18 09:40:37;;;;;;;1.85;0.90;;;;;;;19.71;55.85;100500.88;4910232;29;20056;-89
2022/03/18 09:43:05;;;;;;;2.28;1.00;;;;;;;19.70;55.70;100498.28;4925916;29;20032;-90
2022/03/18 09:45:37;;;;;;;0.98;0.70;;;;;;;19.71;55.55;100500.03;4908559;29;20050;-89
2022/03/18 09:48:06;;;;;;;0.93;0.52;;;;;;;19.71;55.68;100502.66;4908318;29;20028;-89
2022/03/18 09:50:32;;;;;;;2.35;0.90;;;;;;;19.72;55.58;100507.03;4938354;29;20450;-88
2022/03/18 09:52:58;;;;;;;1.48;0.65;;;;;;;19.72;55.64;100502.59;4907093;29;20354;-89
2022/03/18 09:55:24;;;;;;;1.75;0.88;;;;;;;19.71;55.63;100500.03;4907884;29;20023;-88
2022/03/18 09:57:49;;;;;;;1.60;0.88;;;;;;;19.67;55.61;100499.25;4908131;29;20064;-88
2022/03/18 10:00:15;;;;;;;1.63;1.00;;;;;;;19.69;55.58;100501.84;4939646;29;20047;-88
2022/03/18 10:02:41;;;;;;;1.27;0.88;;;;;;;19.69;55.54;100500.06;4906112;29;20516;-89
2022/03/18 10:05:14;;;;;;;1.33;0.73;;;;;;;19.70;55.42;100503.56;4906997;29;20028;-89
2022/03/18 10:07:51;;;;;;;2.17;0.73;;;;;;;19.72;55.67;100504.38;4906668;29;20024;-89
2022/03/18 10:10:17;;;;;;;1.35;0.77;;;;;;;19.71;55.34;100502.66;4938595;29;20151;-89
2022/03/18 10:12:47;;;;;;;2.35;0.90;;;;;;;19.72;55.33;100507.03;4909122;29;20032;-89
2022/03/18 10:15:17;;;;;;;1.92;0.90;;;;;;;19.71;55.31;100511.47;4908776;29;20473;-89
2022/03/18 10:17:48;;;;;;;2.03;0.70;;;;;;;19.70;55.34;100503.56;4908417;29;20099;-88
2022/03/18 10:20:32;;;;;;;1.85;0.93;;;;;;;19.71;55.33;100515.91;4907424;29;20529;-88
2022/03/18 10:23:17;;;;;;;1.58;0.70;;;;;;;19.71;55.46;100516.75;4907813;29;20051;-87
2022/03/18 10:25:52;;;;;;;1.65;0.75;;;;;;;19.70;55.35;100516.81;4908221;29;20106;-89
2022/03/18 10:28:18;;;;;;;2.05;0.90;;;;;;;19.73;55.46;100524.66;4937304;29;20032;-90
2022/03/18 10:30:44;;;;;;;1.45;0.70;;;;;;;19.73;55.46;100519.34;4937145;29;20107;-90
2022/03/18 10:33:09;;;;;;;2.03;1.00;;;;;;;19.73;55.38;100524.66;4922137;29;20028;-91
2022/03/18 10:38:35;;;;;;;1.13;0.70;;;;;;;19.73;55.49;100522.84;4922821;29;20051;-90
2022/03/18 10:41:24;;;;;;;1.45;0.73;;;;;;;19.74;55.48;100531.66;4905935;29;20476;-90
2022/03/18 10:43:53;;;;;;;1.52;0.80;;;;;;;19.75;55.22;100529.88;4908974;29;20028;-90
2022/03/18 10:46:20;;;;;;;2.13;0.82;;;;;;;19.72;55.51;100522.94;4907710;29;20032;-90
2022/03/18 10:49:06;;;;;;;1.75;1.10;;;;;;;19.73;55.62;100524.66;4937950;29;20068;-91
2022/03/18 10:51:33;;;;;;;1.08;0.65;;;;;;;19.74;55.28;100523.72;4919215;29;20467;-90
2022/03/18 10:54:00;;;;;;;1.95;0.68;;;;;;;19.73;55.22;100522.00;4902819;29;20070;-90
2022/03/18 10:56:26;;;;;;;1.52;0.70;;;;;;;19.71;55.30;100527.34;4903246;29;20087;-90
2022/03/18 10:58:52;;;;;;;1.05;0.50;;;;;;;19.74;55.38;100526.38;4904166;29;20056;-89
2022/03/18 11:01:19;;;;;;;1.50;0.80;;;;;;;19.74;55.29;100526.38;4921259;29;20037;-89
2022/03/18 11:03:46;;;;;;;1.52;0.60;;;;;;;19.74;55.28;100526.38;4906042;29;20036;-91
2022/03/18 11:06:13;;;;;;;0.68;0.57;;;;;;;19.75;55.28;100524.59;4906458;29;20067;-90
2022/03/18 11:08:47;;;;;;;1.67;0.90;;;;;;;19.74;55.11;100523.72;4906944;29;20039;-90
2022/03/18 11:11:18;;;;;;;1.77;1.03;;;;;;;19.72;55.36;100517.63;4912503;29;20084;-90
2022/03/18 11:14:04;;;;;;;1.20;0.68;;;;;;;19.73;55.28;100519.34;4908636;29;20036;-91
2022/03/18 11:16:34;;;;;;;1.88;1.00;;;;;;;19.73;55.35;100516.69;4912712;29;20458;-91
2022/03/18 11:19:05;;;;;;;1.63;0.80;;;;;;;19.72;55.29;100513.19;4913440;29;20040;-91
2022/03/18 11:21:41;;;;;;;1.70;0.68;;;;;;;19.74;55.17;100510.47;4929773;29;20032;-90
2022/03/18 11:24:14;;;;;;;1.40;0.70;;;;;;;19.73;55.05;100511.41;4931335;29;20028;-91
2022/03/18 11:26:48;;;;;;;1.63;0.70;;;;;;;19.72;55.32;100502.59;4916279;29;20036;-91
2022/03/18 11:29:22;;;;;;;1.52;0.60;;;;;;;19.73;55.28;100508.75;4910929;29;20032;-91
2022/03/18 11:32:10;;;;;;;1.35;0.80;;;;;;;19.75;55.03;100501.59;4917743;29;20024;-91
2022/03/18 11:35:01;;;;;;;0.52;0.50;;;;;;;19.75;55.18;100500.75;4940921;29;20051;-90
2022/03/18 11:37:29;;;;;;;1.30;0.70;;;;;;;19.73;55.24;100503.47;4908204;29;20359;-90
2022/03/18 11:40:19;;;;;;;2.05;0.88;;;;;;;19.75;55.03;100506.91;4909488;29;20498;-90
2022/03/18 11:42:48;;;;;;;0.93;0.68;;;;;;;19.76;55.14;100502.47;4940572;29;20036;-90
2022/03/18 11:45:34;;;;;;;1.38;0.73;;;;;;;19.77;54.86;100507.72;4909612;29;20043;-90
2022/03/18 11:48:00;;;;;;;2.13;0.70;;;;;;;19.77;54.99;100507.72;4911280;29;20048;-90